sensor_id;sensor_type;location;lat;lon;timestamp;pressure;altitude;pressure_sealevel;temperature;humidity
22000;BME280;11164;48.818;2.322;2023-07-29T00:00:15;99991.84;;;21.76;54.13
22000;BME280;11164;48.818;2.322;2023-07-29T00:02:40;99982.41;;;21.87;53.53
22000;BME280;11164;48.818;2.322;2023-07-29T00:05:06;99969.63;;;22.07;52.95
22000;BME280;11164;48.818;2.322;2023-07-29T00:07:31;99967.16;;;22.05;53.06
22000;BME280;11164;48.818;2.322;2023-07-29T00:09:56;99967.06;;;22.16;52.54
22000;BME280;11164;48.818;2.322;2023-07-29T00:12:22;99955.38;;;22.29;52.22
22000;BME280;11164;48.818;2.322;2023-07-29T00:14:47;99958.63;;;22.31;52.08
22000;BME280;11164;48.818;2.322;2023-07-29T00:17:12;99945.53;;;22.23;52.29
22000;BME280;11164;48.818;2.322;2023-07-29T00:19:37;99952.47;;;22.20;51.93
22000;BME280;11164;48.818;2.322;2023-07-29T00:22:04;99948.28;;;22.23;51.92
22000;BME280;11164;48.818;2.322;2023-07-29T00:24:29;99943.34;;;22.25;51.58
22000;BME280;11164;48.818;2.322;2023-07-29T00:26:55;99934.66;;;22.37;51.28
22000;BME280;11164;48.818;2.322;2023-07-29T00:29:20;99928.72;;;22.29;51.38
22000;BME280;11164;48.818;2.322;2023-07-29T00:31:45;99936.78;;;22.21;51.87
22000;BME280;11164;48.818;2.322;2023-07-29T00:34:10;99948.56;;;22.02;51.74
22000;BME280;11164;48.818;2.322;2023-07-29T00:36:36;99949.41;;;21.98;52.19
22000;BME280;11164;48.818;2.322;2023-07-29T00:39:01;99945.34;;;21.90;52.30
22000;BME280;11164;48.818;2.322;2023-07-29T00:41:26;99947.19;;;22.00;51.97
22000;BME280;11164;48.818;2.322;2023-07-29T00:43:52;99958.59;;;21.83;52.29
22000;BME280;11164;48.818;2.322;2023-07-29T00:46:17;99971.88;;;21.70;52.53
22000;BME280;11164;48.818;2.322;2023-07-29T00:48:43;99958.72;;;21.67;52.58
22000;BME280;11164;48.818;2.322;2023-07-29T00:51:09;99956.81;;;21.68;52.30
22000;BME280;11164;48.818;2.322;2023-07-29T00:53:34;99961.63;;;21.52;52.35
22000;BME280;11164;48.818;2.322;2023-07-29T00:55:59;99956.69;;;21.54;52.56
22000;BME280;11164;48.818;2.322;2023-07-29T00:58:25;99957.53;;;21.49;52.25
22000;BME280;11164;48.818;2.322;2023-07-29T01:00:50;99963.34;;;21.43;52.41
22000;BME280;11164;48.818;2.322;2023-07-29T01:03:16;99962.81;;;21.41;52.53
22000;BME280;11164;48.818;2.322;2023-07-29T01:05:55;99976.50;;;21.46;52.04
22000;BME280;11164;48.818;2.322;2023-07-29T01:08:38;99971.84;;;21.41;51.41
22000;BME280;11164;48.818;2.322;2023-07-29T01:11:22;99966.56;;;21.15;52.62
22000;BME280;11164;48.818;2.322;2023-07-29T01:14:05;99955.91;;;21.09;52.71
22000;BME280;11164;48.818;2.322;2023-07-29T01:16:41;99952.53;;;21.17;52.23
22000;BME280;11164;48.818;2.322;2023-07-29T01:19:20;99946.31;;;21.06;52.26
22000;BME280;11164;48.818;2.322;2023-07-29T01:21:49;99948.53;;;21.04;52.49
22000;BME280;11164;48.818;2.322;2023-07-29T01:24:14;99941.09;;;21.10;52.16
22000;BME280;11164;48.818;2.322;2023-07-29T01:26:40;99931.25;;;21.09;52.24
22000;BME280;11164;48.818;2.322;2023-07-29T01:29:05;99944.81;;;20.85;52.68
22000;BME280;11164;48.818;2.322;2023-07-29T01:31:33;99949.56;;;20.74;52.70
22000;BME280;11164;48.818;2.322;2023-07-29T01:34:08;99961.94;;;20.56;52.45
22000;BME280;11164;48.818;2.322;2023-07-29T01:36:37;99951.81;;;20.56;52.98
22000;BME280;11164;48.818;2.322;2023-07-29T01:39:05;99930.72;;;20.62;52.54
22000;BME280;11164;48.818;2.322;2023-07-29T01:41:32;99936.41;;;20.71;52.36
22000;BME280;11164;48.818;2.322;2023-07-29T01:43:58;99935.03;;;20.68;52.24
22000;BME280;11164;48.818;2.322;2023-07-29T01:46:25;99905.53;;;20.60;52.23
22000;BME280;11164;48.818;2.322;2023-07-29T01:48:50;99921.84;;;20.75;52.13
22000;BME280;11164;48.818;2.322;2023-07-29T01:51:16;99943.47;;;20.77;51.87
22000;BME280;11164;48.818;2.322;2023-07-29T01:53:41;99950.66;;;20.73;51.91
22000;BME280;11164;48.818;2.322;2023-07-29T01:56:06;99940.78;;;20.72;51.77
22000;BME280;11164;48.818;2.322;2023-07-29T01:58:32;99960.59;;;20.58;52.25
22000;BME280;11164;48.818;2.322;2023-07-29T02:00:57;99954.59;;;20.46;52.66
22000;BME280;11164;48.818;2.322;2023-07-29T02:03:22;99969.66;;;20.43;52.45
22000;BME280;11164;48.818;2.322;2023-07-29T02:05:47;99961.72;;;20.42;52.61
22000;BME280;11164;48.818;2.322;2023-07-29T02:08:13;99969.09;;;20.47;52.34
22000;BME280;11164;48.818;2.322;2023-07-29T02:10:39;99965.31;;;20.37;52.43
22000;BME280;11164;48.818;2.322;2023-07-29T02:13:04;99936.78;;;20.43;52.00
22000;BME280;11164;48.818;2.322;2023-07-29T02:15:29;99897.63;;;20.48;51.87
22000;BME280;11164;48.818;2.322;2023-07-29T02:17:55;99922.06;;;20.34;52.47
22000;BME280;11164;48.818;2.322;2023-07-29T02:20:20;99931.13;;;20.19;52.62
22000;BME280;11164;48.818;2.322;2023-07-29T02:22:45;99933.56;;;20.26;52.27
22000;BME280;11164;48.818;2.322;2023-07-29T02:25:11;99936.59;;;20.24;52.37
22000;BME280;11164;48.818;2.322;2023-07-29T02:27:36;99932.94;;;20.50;51.98
22000;BME280;11164;48.818;2.322;2023-07-29T02:30:02;99936.84;;;20.33;51.81
22000;BME280;11164;48.818;2.322;2023-07-29T02:32:28;99946.16;;;20.32;51.63
22000;BME280;11164;48.818;2.322;2023-07-29T02:34:53;99948.06;;;20.27;51.93
22000;BME280;11164;48.818;2.322;2023-07-29T02:37:19;99945.13;;;20.08;52.28
22000;BME280;11164;48.818;2.322;2023-07-29T02:39:44;99958.28;;;20.05;52.33
22000;BME280;11164;48.818;2.322;2023-07-29T02:42:10;99951.19;;;19.94;52.66
22000;BME280;11164;48.818;2.322;2023-07-29T02:44:35;99944.34;;;19.76;52.71
22000;BME280;11164;48.818;2.322;2023-07-29T02:47:00;99936.13;;;19.97;52.34
22000;BME280;11164;48.818;2.322;2023-07-29T02:49:26;99934.81;;;19.89;52.46
22000;BME280;11164;48.818;2.322;2023-07-29T02:51:51;99939.41;;;20.04;52.07
22000;BME280;11164;48.818;2.322;2023-07-29T02:54:16;99932.06;;;19.68;52.76
22000;BME280;11164;48.818;2.322;2023-07-29T02:56:42;99944.63;;;19.95;52.15
22000;BME280;11164;48.818;2.322;2023-07-29T02:59:07;99938.91;;;19.81;52.22
22000;BME280;11164;48.818;2.322;2023-07-29T03:01:32;99954.22;;;19.82;52.32
22000;BME280;11164;48.818;2.322;2023-07-29T03:03:58;99950.66;;;19.77;52.49
22000;BME280;11164;48.818;2.322;2023-07-29T03:06:23;99951.47;;;19.67;52.70
22000;BME280;11164;48.818;2.322;2023-07-29T03:08:49;99954.75;;;19.64;52.79
22000;BME280;11164;48.818;2.322;2023-07-29T03:11:15;99953.94;;;19.79;52.17
22000;BME280;11164;48.818;2.322;2023-07-29T03:13:41;99961.34;;;19.73;52.42
22000;BME280;11164;48.818;2.322;2023-07-29T03:16:08;99961.06;;;19.59;52.55
22000;BME280;11164;48.818;2.322;2023-07-29T03:18:34;99973.38;;;19.52;53.05
22000;BME280;11164;48.818;2.322;2023-07-29T03:21:00;99972.28;;;19.68;52.46
22000;BME280;11164;48.818;2.322;2023-07-29T03:23:27;99983.75;;;19.49;52.97
22000;BME280;11164;48.818;2.322;2023-07-29T03:25:54;99975.84;;;19.53;52.93
22000;BME280;11164;48.818;2.322;2023-07-29T03:28:23;99979.09;;;19.50;52.91
22000;BME280;11164;48.818;2.322;2023-07-29T03:30:48;99978.03;;;19.41;52.97
22000;BME280;11164;48.818;2.322;2023-07-29T03:33:14;99988.16;;;19.50;52.72
22000;BME280;11164;48.818;2.322;2023-07-29T03:35:39;99993.63;;;19.50;52.73
22000;BME280;11164;48.818;2.322;2023-07-29T03:38:04;99989.75;;;19.31;53.31
22000;BME280;11164;48.818;2.322;2023-07-29T03:40:29;99991.69;;;19.41;53.07
22000;BME280;11164;48.818;2.322;2023-07-29T03:42:55;99982.94;;;19.34;53.31
22000;BME280;11164;48.818;2.322;2023-07-29T03:45:20;99979.38;;;19.38;52.91
22000;BME280;11164;48.818;2.322;2023-07-29T03:47:45;99981.84;;;19.40;53.08
22000;BME280;11164;48.818;2.322;2023-07-29T03:50:11;99991.69;;;19.56;52.41
22000;BME280;11164;48.818;2.322;2023-07-29T03:52:36;99978.84;;;19.62;52.15
22000;BME280;11164;48.818;2.322;2023-07-29T03:55:02;99984.84;;;19.48;52.77
22000;BME280;11164;48.818;2.322;2023-07-29T03:57:27;99986.50;;;19.60;52.23
22000;BME280;11164;48.818;2.322;2023-07-29T03:59:55;99972.56;;;19.51;52.50
22000;BME280;11164;48.818;2.322;2023-07-29T04:02:20;99987.88;;;19.42;52.62
22000;BME280;11164;48.818;2.322;2023-07-29T04:04:46;99990.59;;;19.57;52.18
22000;BME280;11164;48.818;2.322;2023-07-29T04:07:13;99990.31;;;19.38;52.68
22000;BME280;11164;48.818;2.322;2023-07-29T04:09:38;100001.25;;;19.43;52.48
22000;BME280;11164;48.818;2.322;2023-07-29T04:12:04;99985.13;;;19.37;52.67
22000;BME280;11164;48.818;2.322;2023-07-29T04:14:30;99992.50;;;19.31;52.93
22000;BME280;11164;48.818;2.322;2023-07-29T04:16:55;99994.97;;;19.38;52.84
22000;BME280;11164;48.818;2.322;2023-07-29T04:19:20;99999.06;;;19.20;53.19
22000;BME280;11164;48.818;2.322;2023-07-29T04:21:46;99997.69;;;19.33;52.62
22000;BME280;11164;48.818;2.322;2023-07-29T04:24:11;99999.34;;;19.39;52.59
22000;BME280;11164;48.818;2.322;2023-07-29T04:26:36;100003.16;;;19.38;52.43
22000;BME280;11164;48.818;2.322;2023-07-29T04:29:04;100006.44;;;19.35;52.68
22000;BME280;11164;48.818;2.322;2023-07-29T04:31:29;100015.47;;;19.40;52.35
22000;BME280;11164;48.818;2.322;2023-07-29T04:33:54;100023.38;;;19.26;52.84
22000;BME280;11164;48.818;2.322;2023-07-29T04:36:20;100015.22;;;19.37;52.50
22000;BME280;11164;48.818;2.322;2023-07-29T04:38:45;100003.72;;;19.45;52.06
22000;BME280;11164;48.818;2.322;2023-07-29T04:41:10;100000.16;;;19.60;51.86
22000;BME280;11164;48.818;2.322;2023-07-29T04:43:36;100004.25;;;19.57;51.80
22000;BME280;11164;48.818;2.322;2023-07-29T04:46:01;99996.88;;;19.42;52.09
22000;BME280;11164;48.818;2.322;2023-07-29T04:48:27;99999.63;;;19.53;52.07
22000;BME280;11164;48.818;2.322;2023-07-29T04:50:52;99999.34;;;19.44;52.28
22000;BME280;11164;48.818;2.322;2023-07-29T04:53:18;100000.72;;;19.62;51.73
22000;BME280;11164;48.818;2.322;2023-07-29T04:55:43;99996.63;;;19.59;51.87
22000;BME280;11164;48.818;2.322;2023-07-29T04:58:09;100002.91;;;19.75;51.64
22000;BME280;11164;48.818;2.322;2023-07-29T05:00:34;100008.94;;;19.87;51.16
22000;BME280;11164;48.818;2.322;2023-07-29T05:03:00;100005.66;;;19.96;50.77
22000;BME280;11164;48.818;2.322;2023-07-29T05:05:26;100012.47;;;19.98;51.01
22000;BME280;11164;48.818;2.322;2023-07-29T05:07:51;100011.38;;;20.10;50.98
22000;BME280;11164;48.818;2.322;2023-07-29T05:10:17;100012.16;;;20.25;50.70
22000;BME280;11164;48.818;2.322;2023-07-29T05:12:42;100022.50;;;20.34;50.58
22000;BME280;11164;48.818;2.322;2023-07-29T05:15:08;100025.22;;;20.44;50.35
22000;BME280;11164;48.818;2.322;2023-07-29T05:17:33;99999.22;;;20.47;50.28
22000;BME280;11164;48.818;2.322;2023-07-29T05:19:58;100014.50;;;20.63;50.22
22000;BME280;11164;48.818;2.322;2023-07-29T05:22:24;100017.19;;;20.73;50.08
22000;BME280;11164;48.818;2.322;2023-07-29T05:24:50;100016.59;;;20.87;50.21
22000;BME280;11164;48.818;2.322;2023-07-29T05:27:15;100020.34;;;21.01;49.86
22000;BME280;11164;48.818;2.322;2023-07-29T05:29:40;100015.13;;;21.05;50.15
22000;BME280;11164;48.818;2.322;2023-07-29T05:32:06;100011.03;;;21.02;50.07
22000;BME280;11164;48.818;2.322;2023-07-29T05:34:31;100012.09;;;21.06;50.06
22000;BME280;11164;48.818;2.322;2023-07-29T05:36:56;100008.91;;;20.89;50.39
22000;BME280;11164;48.818;2.322;2023-07-29T05:39:22;100025.84;;;20.96;50.29
22000;BME280;11164;48.818;2.322;2023-07-29T05:41:49;100024.69;;;21.12;50.17
22000;BME280;11164;48.818;2.322;2023-07-29T05:44:14;100022.75;;;21.58;49.32
22000;BME280;11164;48.818;2.322;2023-07-29T05:46:40;100028.09;;;21.39;49.86
22000;BME280;11164;48.818;2.322;2023-07-29T05:49:05;100019.72;;;21.14;50.48
22000;BME280;11164;48.818;2.322;2023-07-29T05:51:30;100022.41;;;21.30;50.08
22000;BME280;11164;48.818;2.322;2023-07-29T05:53:56;100015.25;;;21.34;50.28
22000;BME280;11164;48.818;2.322;2023-07-29T05:56:21;100027.75;;;21.50;49.49
22000;BME280;11164;48.818;2.322;2023-07-29T05:58:46;100026.06;;;21.54;49.87
22000;BME280;11164;48.818;2.322;2023-07-29T06:01:12;100023.16;;;21.41;49.89
22000;BME280;11164;48.818;2.322;2023-07-29T06:03:37;100012.56;;;21.18;50.63
22000;BME280;11164;48.818;2.322;2023-07-29T06:06:02;100016.16;;;21.19;50.36
22000;BME280;11164;48.818;2.322;2023-07-29T06:08:28;100009.59;;;21.10;50.53
22000;BME280;11164;48.818;2.322;2023-07-29T06:10:54;100008.63;;;21.40;50.00
22000;BME280;11164;48.818;2.322;2023-07-29T06:13:19;100011.13;;;21.36;50.14
22000;BME280;11164;48.818;2.322;2023-07-29T06:15:44;100022.19;;;21.61;49.54
22000;BME280;11164;48.818;2.322;2023-07-29T06:18:10;100029.91;;;21.53;49.49
22000;BME280;11164;48.818;2.322;2023-07-29T06:20:35;100044.63;;;21.68;49.42
22000;BME280;11164;48.818;2.322;2023-07-29T06:23:00;100048.50;;;21.62;49.38
22000;BME280;11164;48.818;2.322;2023-07-29T06:25:27;100053.69;;;21.18;50.18
22000;BME280;11164;48.818;2.322;2023-07-29T06:27:52;100052.06;;;20.47;51.70
22000;BME280;11164;48.818;2.322;2023-07-29T06:30:17;100054.13;;;20.91;50.62
22000;BME280;11164;48.818;2.322;2023-07-29T06:32:43;100050.00;;;20.89;50.43
22000;BME280;11164;48.818;2.322;2023-07-29T06:35:08;100044.25;;;20.90;50.34
22000;BME280;11164;48.818;2.322;2023-07-29T06:37:33;100057.28;;;21.14;50.17
22000;BME280;11164;48.818;2.322;2023-07-29T06:39:59;100057.81;;;21.21;49.55
22000;BME280;11164;48.818;2.322;2023-07-29T06:42:24;100064.94;;;21.17;49.85
22000;BME280;11164;48.818;2.322;2023-07-29T06:44:49;100047.44;;;21.08;49.85
22000;BME280;11164;48.818;2.322;2023-07-29T06:47:14;100049.94;;;21.04;50.10
22000;BME280;11164;48.818;2.322;2023-07-29T06:49:40;100058.00;;;20.75;50.45
22000;BME280;11164;48.818;2.322;2023-07-29T06:52:05;100052.03;;;21.23;49.44
22000;BME280;11164;48.818;2.322;2023-07-29T06:54:31;100056.88;;;20.86;50.33
22000;BME280;11164;48.818;2.322;2023-07-29T06:56:56;100048.06;;;20.89;50.02
22000;BME280;11164;48.818;2.322;2023-07-29T06:59:21;100062.75;;;21.19;49.41
22000;BME280;11164;48.818;2.322;2023-07-29T07:01:47;100070.16;;;21.63;48.67
22000;BME280;11164;48.818;2.322;2023-07-29T07:04:12;100074.84;;;21.08;49.68
22000;BME280;11164;48.818;2.322;2023-07-29T07:06:37;100066.97;;;21.51;49.04
22000;BME280;11164;48.818;2.322;2023-07-29T07:09:03;100076.69;;;21.67;48.61
22000;BME280;11164;48.818;2.322;2023-07-29T07:11:28;100081.19;;;22.27;47.38
22000;BME280;11164;48.818;2.322;2023-07-29T07:13:53;100096.00;;;22.26;47.68
22000;BME280;11164;48.818;2.322;2023-07-29T07:16:19;100072.69;;;21.54;49.25
22000;BME280;11164;48.818;2.322;2023-07-29T07:18:44;100088.09;;;21.85;48.45
22000;BME280;11164;48.818;2.322;2023-07-29T07:21:09;100095.13;;;22.01;48.28
22000;BME280;11164;48.818;2.322;2023-07-29T07:23:35;100085.66;;;21.83;48.47
22000;BME280;11164;48.818;2.322;2023-07-29T07:26:01;100097.13;;;21.90;48.90
22000;BME280;11164;48.818;2.322;2023-07-29T07:28:27;100096.53;;;21.59;49.16
22000;BME280;11164;48.818;2.322;2023-07-29T07:30:52;100093.09;;;21.78;48.94
22000;BME280;11164;48.818;2.322;2023-07-29T07:33:17;100090.09;;;22.14;48.22
22000;BME280;11164;48.818;2.322;2023-07-29T07:35:43;100096.06;;;22.21;48.19
22000;BME280;11164;48.818;2.322;2023-07-29T07:38:08;100095.56;;;22.14;48.09
22000;BME280;11164;48.818;2.322;2023-07-29T07:40:35;100111.53;;;22.11;48.17
22000;BME280;11164;48.818;2.322;2023-07-29T07:43:01;100111.63;;;21.56;49.01
22000;BME280;11164;48.818;2.322;2023-07-29T07:45:26;100110.97;;;21.75;48.36
22000;BME280;11164;48.818;2.322;2023-07-29T07:47:52;100111.84;;;21.65;48.65
22000;BME280;11164;48.818;2.322;2023-07-29T07:50:19;100096.47;;;22.04;48.08
22000;BME280;11164;48.818;2.322;2023-07-29T07:52:44;100115.72;;;21.99;48.04
22000;BME280;11164;48.818;2.322;2023-07-29T07:55:09;100100.72;;;21.86;47.85
22000;BME280;11164;48.818;2.322;2023-07-29T07:57:35;100105.34;;;21.96;47.79
22000;BME280;11164;48.818;2.322;2023-07-29T08:00:00;100100.81;;;22.39;47.09
22000;BME280;11164;48.818;2.322;2023-07-29T08:02:25;100103.66;;;23.07;45.94
22000;BME280;11164;48.818;2.322;2023-07-29T08:04:51;100086.28;;;22.87;46.41
22000;BME280;11164;48.818;2.322;2023-07-29T08:07:16;100105.31;;;22.30;47.61
22000;BME280;11164;48.818;2.322;2023-07-29T08:09:41;100101.91;;;22.09;48.19
22000;BME280;11164;48.818;2.322;2023-07-29T08:12:07;100097.78;;;22.70;47.34
22000;BME280;11164;48.818;2.322;2023-07-29T08:14:32;100104.44;;;22.88;46.87
22000;BME280;11164;48.818;2.322;2023-07-29T08:16:58;100098.72;;;22.55;47.54
22000;BME280;11164;48.818;2.322;2023-07-29T08:19:23;100109.19;;;22.82;47.18
22000;BME280;11164;48.818;2.322;2023-07-29T08:21:49;100103.97;;;22.81;47.76
22000;BME280;11164;48.818;2.322;2023-07-29T08:24:14;100100.38;;;22.56;48.09
22000;BME280;11164;48.818;2.322;2023-07-29T08:26:39;100100.81;;;22.93;47.45
22000;BME280;11164;48.818;2.322;2023-07-29T08:29:05;100106.66;;;22.86;48.09
22000;BME280;11164;48.818;2.322;2023-07-29T08:31:30;100107.47;;;22.86;48.11
22000;BME280;11164;48.818;2.322;2023-07-29T08:33:59;100105.84;;;22.32;48.91
22000;BME280;11164;48.818;2.322;2023-07-29T08:36:24;100111.47;;;22.17;48.71
22000;BME280;11164;48.818;2.322;2023-07-29T08:38:49;100101.19;;;21.93;49.40
22000;BME280;11164;48.818;2.322;2023-07-29T08:41:54;100108.53;;;22.08;46.94
22000;BME280;11164;48.818;2.322;2023-07-29T08:44:23;100104.00;;;22.52;47.76
22000;BME280;11164;48.818;2.322;2023-07-29T08:46:49;100095.41;;;22.58;47.90
22000;BME280;11164;48.818;2.322;2023-07-29T08:49:15;100096.94;;;22.40;47.80
22000;BME280;11164;48.818;2.322;2023-07-29T08:51:45;100098.47;;;22.27;48.41
22000;BME280;11164;48.818;2.322;2023-07-29T08:54:12;100092.94;;;22.57;47.68
22000;BME280;11164;48.818;2.322;2023-07-29T08:56:38;100090.88;;;22.43;47.87
22000;BME280;11164;48.818;2.322;2023-07-29T08:59:04;100094.94;;;22.51;47.63
22000;BME280;11164;48.818;2.322;2023-07-29T09:01:30;100087.13;;;22.88;47.15
22000;BME280;11164;48.818;2.322;2023-07-29T09:03:56;100089.94;;;23.64;45.87
22000;BME280;11164;48.818;2.322;2023-07-29T09:06:21;100090.75;;;23.83;45.61
22000;BME280;11164;48.818;2.322;2023-07-29T09:08:49;100082.78;;;24.01;45.23
22000;BME280;11164;48.818;2.322;2023-07-29T09:11:16;100078.06;;;24.01;45.55
22000;BME280;11164;48.818;2.322;2023-07-29T09:13:42;100079.53;;;23.22;47.00
22000;BME280;11164;48.818;2.322;2023-07-29T09:16:08;100067.22;;;23.15;46.78
22000;BME280;11164;48.818;2.322;2023-07-29T09:18:34;100073.72;;;23.24;46.48
22000;BME280;11164;48.818;2.322;2023-07-29T09:20:59;100073.91;;;23.33;46.02
22000;BME280;11164;48.818;2.322;2023-07-29T09:23:26;100065.72;;;23.47;45.63
22000;BME280;11164;48.818;2.322;2023-07-29T09:26:00;100071.81;;;23.63;43.92
22000;BME280;11164;48.818;2.322;2023-07-29T09:28:26;100080.53;;;24.03;44.70
22000;BME280;11164;48.818;2.322;2023-07-29T09:30:52;100067.53;;;24.36;44.24
22000;BME280;11164;48.818;2.322;2023-07-29T09:33:18;100072.91;;;24.27;44.35
22000;BME280;11164;48.818;2.322;2023-07-29T09:35:44;100070.03;;;24.05;44.50
22000;BME280;11164;48.818;2.322;2023-07-29T09:38:14;100068.78;;;24.44;43.81
22000;BME280;11164;48.818;2.322;2023-07-29T09:40:41;100076.31;;;24.52;44.17
22000;BME280;11164;48.818;2.322;2023-07-29T09:43:09;100069.56;;;24.44;44.50
22000;BME280;11164;48.818;2.322;2023-07-29T09:45:35;100061.91;;;24.27;44.52
22000;BME280;11164;48.818;2.322;2023-07-29T09:48:03;100071.34;;;23.93;44.84
22000;BME280;11164;48.818;2.322;2023-07-29T09:50:30;100068.66;;;24.21;44.34
22000;BME280;11164;48.818;2.322;2023-07-29T09:52:56;100067.97;;;24.71;43.24
22000;BME280;11164;48.818;2.322;2023-07-29T09:55:26;100070.69;;;24.43;44.10
22000;BME280;11164;48.818;2.322;2023-07-29T09:57:58;100073.13;;;24.45;40.68
22000;BME280;11164;48.818;2.322;2023-07-29T10:00:27;100070.41;;;23.79;45.17
22000;BME280;11164;48.818;2.322;2023-07-29T10:02:53;100073.59;;;23.86;44.51
22000;BME280;11164;48.818;2.322;2023-07-29T10:05:20;100072.19;;;23.89;44.80
22000;BME280;11164;48.818;2.322;2023-07-29T10:07:47;100074.25;;;24.16;44.20
22000;BME280;11164;48.818;2.322;2023-07-29T10:10:13;100073.06;;;24.03;44.32
22000;BME280;11164;48.818;2.322;2023-07-29T10:12:39;100073.72;;;24.28;43.95
22000;BME280;11164;48.818;2.322;2023-07-29T10:15:08;100066.31;;;24.28;43.82
22000;BME280;11164;48.818;2.322;2023-07-29T10:17:35;100074.78;;;24.32;43.79
22000;BME280;11164;48.818;2.322;2023-07-29T10:20:03;100068.34;;;24.36;43.54
22000;BME280;11164;48.818;2.322;2023-07-29T10:22:37;100078.50;;;24.55;41.89
22000;BME280;11164;48.818;2.322;2023-07-29T10:25:22;100072.16;;;24.68;40.30
22000;BME280;11164;48.818;2.322;2023-07-29T10:27:49;100067.44;;;24.97;42.96
22000;BME280;11164;48.818;2.322;2023-07-29T10:30:17;100079.19;;;25.16;42.78
22000;BME280;11164;48.818;2.322;2023-07-29T10:32:43;100077.06;;;25.72;41.91
22000;BME280;11164;48.818;2.322;2023-07-29T10:35:13;100068.25;;;25.47;42.31
22000;BME280;11164;48.818;2.322;2023-07-29T10:37:39;100061.56;;;25.62;42.35
22000;BME280;11164;48.818;2.322;2023-07-29T10:40:10;100075.47;;;25.57;41.99
22000;BME280;11164;48.818;2.322;2023-07-29T10:42:37;100062.88;;;25.65;42.21
22000;BME280;11164;48.818;2.322;2023-07-29T10:45:21;100068.88;;;25.81;39.27
22000;BME280;11164;48.818;2.322;2023-07-29T10:47:47;100075.25;;;25.67;38.62
22000;BME280;11164;48.818;2.322;2023-07-29T10:50:22;100066.41;;;25.06;41.92
22000;BME280;11164;48.818;2.322;2023-07-29T10:52:51;100069.38;;;25.10;42.68
22000;BME280;11164;48.818;2.322;2023-07-29T10:55:24;100069.06;;;25.11;42.40
22000;BME280;11164;48.818;2.322;2023-07-29T10:57:50;100066.00;;;25.13;43.05
22000;BME280;11164;48.818;2.322;2023-07-29T11:00:16;100062.34;;;24.90;43.13
22000;BME280;11164;48.818;2.322;2023-07-29T11:02:43;100066.66;;;24.68;43.41
22000;BME280;11164;48.818;2.322;2023-07-29T11:05:17;100071.13;;;24.64;43.48
22000;BME280;11164;48.818;2.322;2023-07-29T11:07:47;100066.31;;;24.98;42.14
22000;BME280;11164;48.818;2.322;2023-07-29T11:10:13;100059.09;;;25.38;42.48
22000;BME280;11164;48.818;2.322;2023-07-29T11:12:47;100064.47;;;25.80;40.03
22000;BME280;11164;48.818;2.322;2023-07-29T11:15:13;100066.28;;;25.62;42.33
22000;BME280;11164;48.818;2.322;2023-07-29T11:17:43;100057.53;;;26.14;41.48
22000;BME280;11164;48.818;2.322;2023-07-29T11:20:10;100056.28;;;26.60;40.83
22000;BME280;11164;48.818;2.322;2023-07-29T11:22:36;100059.38;;;26.67;40.75
22000;BME280;11164;48.818;2.322;2023-07-29T11:25:02;100061.47;;;26.21;41.87
22000;BME280;11164;48.818;2.322;2023-07-29T11:27:27;100064.34;;;25.85;42.25
22000;BME280;11164;48.818;2.322;2023-07-29T11:30:00;100059.56;;;25.77;41.61
22000;BME280;11164;48.818;2.322;2023-07-29T11:32:27;100054.41;;;25.84;42.08
22000;BME280;11164;48.818;2.322;2023-07-29T11:34:52;100058.38;;;25.92;41.75
22000;BME280;11164;48.818;2.322;2023-07-29T11:37:18;100055.41;;;26.11;41.45
22000;BME280;11164;48.818;2.322;2023-07-29T11:39:45;100040.25;;;26.08;41.49
22000;BME280;11164;48.818;2.322;2023-07-29T11:42:11;100038.81;;;26.42;40.64
22000;BME280;11164;48.818;2.322;2023-07-29T11:44:37;100049.53;;;26.03;41.28
22000;BME280;11164;48.818;2.322;2023-07-29T11:47:06;100040.28;;;25.63;41.73
22000;BME280;11164;48.818;2.322;2023-07-29T11:49:33;100035.38;;;25.60;41.84
22000;BME280;11164;48.818;2.322;2023-07-29T11:51:59;100030.50;;;25.57;42.03
22000;BME280;11164;48.818;2.322;2023-07-29T11:54:25;100027.38;;;25.50;41.81
22000;BME280;11164;48.818;2.322;2023-07-29T11:56:50;100032.50;;;25.65;41.89
22000;BME280;11164;48.818;2.322;2023-07-29T11:59:16;100031.00;;;25.59;41.68
22000;BME280;11164;48.818;2.322;2023-07-29T12:01:43;100024.34;;;25.37;41.84
22000;BME280;11164;48.818;2.322;2023-07-29T12:04:08;100025.53;;;25.08;42.15
22000;BME280;11164;48.818;2.322;2023-07-29T12:06:34;100036.94;;;24.79;42.68
22000;BME280;11164;48.818;2.322;2023-07-29T12:09:00;100035.28;;;24.78;42.68
22000;BME280;11164;48.818;2.322;2023-07-29T12:11:26;100040.78;;;24.92;42.19
22000;BME280;11164;48.818;2.322;2023-07-29T12:13:53;100044.66;;;24.35;42.81
22000;BME280;11164;48.818;2.322;2023-07-29T12:16:18;100059.00;;;23.53;43.86
22000;BME280;11164;48.818;2.322;2023-07-29T12:18:44;100038.44;;;23.50;44.07
22000;BME280;11164;48.818;2.322;2023-07-29T12:21:09;100027.22;;;23.79;43.12
22000;BME280;11164;48.818;2.322;2023-07-29T12:23:35;100029.66;;;24.28;42.20
22000;BME280;11164;48.818;2.322;2023-07-29T12:26:01;100029.47;;;24.52;42.41
22000;BME280;11164;48.818;2.322;2023-07-29T12:28:26;100024.69;;;24.85;42.16
22000;BME280;11164;48.818;2.322;2023-07-29T12:30:56;100009.72;;;25.00;42.17
22000;BME280;11164;48.818;2.322;2023-07-29T12:33:31;100013.56;;;25.27;43.20
22000;BME280;11164;48.818;2.322;2023-07-29T12:35:57;100021.97;;;25.44;42.32
22000;BME280;11164;48.818;2.322;2023-07-29T12:38:23;100006.28;;;25.31;43.04
22000;BME280;11164;48.818;2.322;2023-07-29T12:40:48;100013.41;;;25.32;43.12
22000;BME280;11164;48.818;2.322;2023-07-29T12:43:13;100007.41;;;25.53;42.81
22000;BME280;11164;48.818;2.322;2023-07-29T12:45:39;100002.97;;;25.65;42.60
22000;BME280;11164;48.818;2.322;2023-07-29T12:48:08;99999.38;;;25.88;42.55